createdAt,value
2022-10-11T00:00:25.051Z,4.53
2022-10-11T00:03:26.914Z,4.13
2022-10-11T00:06:28.768Z,4.53
2022-10-11T00:09:30.770Z,4.10
2022-10-11T00:12:33.220Z,4.20
2022-10-11T00:15:35.245Z,4.10
2022-10-11T00:18:37.956Z,4.40
2022-10-11T00:21:39.822Z,5.00
2022-10-11T00:24:41.683Z,5.03
2022-10-11T00:27:43.508Z,4.93
2022-10-11T00:30:45.277Z,4.65
2022-10-11T00:33:47.508Z,5.15
2022-10-11T00:36:49.544Z,4.90
2022-10-11T00:39:51.375Z,4.60
2022-10-11T00:42:53.105Z,5.03
2022-10-11T00:45:57.822Z,5.00
2022-10-11T00:49:05.534Z,4.72
2022-10-11T00:52:31.937Z,4.70
2022-10-11T00:55:40.905Z,4.72
2022-10-11T00:58:43.644Z,5.13
2022-10-11T01:01:45.769Z,4.93
2022-10-11T01:04:47.681Z,5.13
2022-10-11T01:07:50.871Z,4.93
2022-10-11T01:10:52.710Z,5.38
2022-10-11T01:14:03.786Z,5.60
2022-10-11T01:17:13.567Z,5.30
2022-10-11T01:20:27.396Z,5.15
2022-10-11T01:23:44.432Z,5.07
2022-10-11T01:27:13.732Z,5.40
2022-10-11T01:30:23.263Z,5.07
2022-10-11T01:33:41.390Z,4.32
2022-10-11T01:36:52.108Z,4.70
2022-10-11T01:40:05.308Z,4.03
2022-10-11T01:43:07.148Z,4.45
2022-10-11T01:46:10.347Z,5.15
2022-10-11T01:49:12.226Z,4.60
2022-10-11T01:52:14.340Z,4.75
2022-10-11T01:55:36.285Z,4.38
2022-10-11T01:59:06.494Z,3.90
2022-10-11T02:02:39.147Z,4.95
2022-10-11T02:05:55.779Z,4.32
2022-10-11T02:09:11.980Z,4.00
2022-10-11T02:12:20.779Z,4.38
2022-10-11T02:15:25.352Z,4.07
2022-10-11T02:18:33.468Z,4.32
2022-10-11T02:21:40.414Z,3.85
2022-10-11T02:24:46.240Z,4.85
2022-10-11T02:27:50.496Z,4.38
2022-10-11T02:30:53.734Z,4.80
2022-10-11T02:34:19.419Z,4.20
2022-10-11T02:37:24.751Z,4.10
2022-10-11T02:40:32.678Z,4.82
2022-10-11T02:43:41.661Z,4.55
2022-10-11T02:46:45.431Z,4.20
2022-10-11T02:49:47.316Z,5.90
2022-10-11T02:52:49.216Z,4.93
2022-10-11T02:55:53.108Z,5.25
2022-10-11T02:58:54.830Z,5.38
2022-10-11T03:01:56.631Z,4.80
2022-10-11T03:04:58.469Z,5.68
2022-10-11T03:08:00.235Z,5.05
2022-10-11T03:11:02.042Z,4.70
2022-10-11T03:14:03.867Z,5.05
2022-10-11T03:17:31.176Z,5.40
2022-10-11T03:20:27.530Z,5.68
2022-10-11T03:23:29.353Z,5.28
2022-10-11T03:26:31.111Z,5.40
2022-10-11T03:29:32.882Z,5.30
2022-10-11T03:32:34.966Z,5.78
2022-10-11T03:35:36.684Z,5.53
2022-10-11T03:38:39.590Z,5.07
2022-10-11T03:44:42.997Z,5.40
2022-10-11T03:47:44.792Z,5.30
2022-10-11T03:50:46.512Z,5.47
2022-10-11T03:53:48.310Z,5.65
2022-10-11T03:56:50.125Z,6.10
2022-10-11T03:59:51.947Z,5.65
2022-10-11T04:02:53.786Z,5.70
2022-10-11T04:05:55.560Z,5.68
2022-10-11T04:08:57.368Z,6.32
2022-10-11T04:11:59.219Z,5.63
2022-10-11T04:15:01.052Z,6.60
2022-10-11T04:18:02.878Z,5.78
2022-10-11T04:21:04.950Z,6.03
2022-10-11T04:24:06.931Z,6.00
2022-10-11T04:27:08.692Z,5.93
2022-10-11T04:30:11.329Z,5.88
2022-10-11T04:33:13.136Z,6.50
2022-10-11T04:36:15.023Z,5.72
2022-10-11T04:39:16.902Z,6.10
2022-10-11T04:42:18.648Z,5.72
2022-10-11T04:45:21.617Z,6.00
2022-10-11T04:48:23.380Z,5.60
2022-10-11T04:51:25.660Z,6.30
2022-10-11T04:54:27.453Z,6.60
2022-10-11T04:57:29.227Z,6.28
2022-10-11T05:00:31.094Z,6.32
2022-10-11T05:03:33.412Z,6.28
2022-10-11T05:06:35.277Z,6.05
2022-10-11T05:09:37.147Z,6.07
2022-10-11T05:12:38.985Z,5.82
2022-10-11T05:15:40.702Z,5.90
2022-10-11T05:18:42.508Z,5.55
2022-10-11T05:21:44.410Z,5.50
2022-10-11T05:24:46.192Z,5.57
2022-10-11T05:27:49.011Z,5.40
2022-10-11T05:33:52.615Z,5.50
2022-10-11T08:07:16.415Z,6.60
2022-10-11T08:10:18.361Z,6.37
2022-10-11T08:13:20.400Z,4.72
2022-10-11T08:16:22.275Z,4.15
2022-10-11T08:19:24.103Z,4.65
2022-10-11T08:22:26.041Z,4.38
2022-10-11T08:25:28.004Z,4.40
2022-10-11T08:28:29.927Z,4.23
2022-10-11T08:31:34.379Z,4.28
2022-10-11T08:34:36.268Z,3.90
2022-10-11T08:37:38.135Z,4.93
2022-10-11T08:40:47.348Z,4.23
2022-10-11T08:44:05.952Z,4.20
2022-10-11T08:47:28.828Z,4.13
2022-10-11T08:50:31.027Z,4.45
2022-10-11T08:54:12.927Z,3.30
2022-10-11T08:57:19.544Z,5.55
2022-10-11T09:00:23.633Z,3.65
2022-10-11T09:03:37.065Z,3.60
2022-10-11T09:07:07.569Z,3.92
2022-10-11T09:10:43.837Z,3.15
2022-10-11T09:14:12.500Z,3.08
2022-10-11T09:17:52.155Z,3.30
2022-10-11T09:21:28.357Z,3.55
2022-10-11T09:24:47.769Z,3.42
2022-10-11T09:28:15.360Z,3.17
2022-10-11T09:31:22.628Z,3.90
2022-10-11T09:34:32.547Z,4.65
2022-10-11T09:37:52.865Z,5.43
2022-10-11T09:41:23.591Z,5.00
2022-10-11T09:44:33.609Z,5.20
2022-10-11T09:47:36.149Z,13.98
2022-10-11T09:50:39.878Z,7.38
2022-10-11T09:54:00.664Z,4.97
2022-10-11T09:57:06.083Z,3.92
2022-10-11T10:00:23.713Z,6.60
2022-10-11T10:03:31.958Z,5.63
2022-10-11T10:06:37.333Z,7.68
2022-10-11T10:09:39.535Z,6.15
2022-10-11T10:12:41.551Z,4.43
2022-10-11T10:15:48.468Z,5.45
2022-10-11T10:18:59.787Z,5.13
2022-10-11T10:22:01.756Z,5.60
2022-10-11T10:25:09.449Z,4.50
2022-10-11T10:28:24.318Z,4.90
2022-10-11T10:31:30.920Z,4.65
2022-10-11T10:34:38.968Z,3.70
2022-10-11T10:38:02.123Z,3.42
2022-10-11T10:44:11.815Z,3.70
2022-10-11T10:47:43.258Z,3.50
2022-10-11T10:51:26.540Z,3.20
2022-10-11T10:54:51.219Z,3.53
2022-10-11T10:58:09.728Z,4.97
2022-10-11T11:01:24.526Z,4.32
2022-10-11T11:04:33.086Z,4.03
2022-10-11T11:07:49.646Z,3.70
2022-10-11T11:10:56.020Z,2.70
2022-10-11T11:14:19.804Z,2.72
2022-10-11T11:17:30.647Z,2.95
2022-10-11T11:20:41.214Z,2.55
2022-10-11T11:23:55.206Z,2.60
2022-10-11T11:27:15.505Z,2.30
2022-10-11T11:30:49.415Z,2.50
2022-10-11T11:34:03.163Z,2.30
2022-10-11T11:37:14.562Z,2.50
2022-10-11T11:40:29.157Z,3.78
2022-10-11T11:44:10.066Z,2.67
2022-10-11T11:47:31.454Z,2.95
2022-10-11T11:50:43.864Z,2.75
2022-10-11T11:54:24.589Z,2.50
2022-10-11T11:57:53.380Z,2.72
2022-10-11T12:01:31.595Z,1.98
2022-10-11T12:04:38.839Z,1.70
2022-10-11T12:07:52.167Z,1.90
2022-10-11T12:10:59.252Z,2.13
2022-10-11T12:14:03.775Z,2.03
2022-10-11T12:17:12.904Z,1.70
2022-10-11T12:20:41.398Z,1.90
2022-10-11T12:23:46.547Z,2.20
2022-10-11T12:26:50.243Z,2.20
2022-10-11T12:29:52.004Z,2.42
2022-10-11T12:33:06.770Z,2.60
2022-10-11T12:36:47.181Z,3.35
2022-10-11T12:39:57.384Z,3.20
2022-10-11T12:43:36.443Z,3.28
2022-10-11T12:47:03.876Z,3.03
2022-10-11T12:50:17.986Z,3.08
2022-10-11T12:53:22.381Z,3.42
2022-10-11T12:56:38.044Z,2.80
2022-10-11T12:59:46.812Z,2.80
2022-10-11T13:02:49.714Z,2.92
2022-10-11T13:05:53.709Z,3.15
2022-10-11T13:09:04.254Z,2.70
2022-10-11T13:12:18.408Z,2.55
2022-10-11T13:15:22.706Z,2.65
2022-10-11T13:18:26.207Z,2.75
2022-10-11T13:21:36.290Z,2.78
2022-10-11T13:24:40.124Z,5.38
2022-10-11T13:27:42.501Z,3.10
2022-10-11T13:30:50.321Z,2.33
2022-10-11T13:33:59.140Z,3.22
2022-10-11T13:37:01.032Z,3.95
2022-10-11T13:40:06.808Z,3.80
2022-10-11T13:43:08.877Z,2.80
2022-10-11T13:46:19.757Z,2.22
2022-10-11T13:49:29.193Z,2.33
2022-10-11T13:52:31.156Z,2.25
2022-10-11T13:55:47.858Z,2.53
2022-10-11T13:58:49.947Z,2.50
2022-10-11T14:02:00.177Z,31.42
2022-10-11T14:05:02.055Z,57.15
2022-10-11T14:08:08.323Z,36.73
2022-10-11T14:11:12.309Z,18.30
2022-10-11T14:14:32.556Z,11.20
2022-10-11T14:17:39.493Z,28.95
2022-10-11T14:20:41.833Z,4.00
2022-10-11T14:23:44.509Z,3.35
2022-10-11T14:30:19.866Z,20.63
2022-10-11T14:33:12.950Z,38.90
2022-10-11T14:36:14.823Z,20.23
2022-10-11T14:39:22.416Z,8.40
2022-10-11T14:42:24.231Z,6.20
2022-10-11T14:45:26.153Z,4.87
2022-10-11T14:48:50.391Z,9.77
2022-10-11T14:51:50.566Z,14.45
2022-10-11T14:54:52.361Z,7.10
2022-10-11T14:57:54.375Z,6.30
2022-10-11T15:00:56.215Z,7.00
2022-10-11T15:03:58.016Z,7.70
2022-10-11T15:07:00.367Z,6.43
2022-10-11T15:10:17.155Z,15.70
2022-10-11T15:13:19.602Z,10.77
2022-10-11T15:16:22.142Z,27.25
2022-10-11T15:19:25.559Z,23.98
2022-10-11T15:22:27.862Z,52.42
2022-10-11T15:25:30.484Z,42.95
2022-10-11T15:28:33.205Z,32.88
2022-10-11T15:34:36.613Z,11.18
2022-10-11T15:37:38.399Z,15.07
2022-10-11T15:40:40.695Z,58.47
2022-10-11T15:43:47.108Z,50.05
2022-10-11T15:46:48.876Z,22.17
2022-10-11T15:49:50.623Z,17.50
2022-10-11T15:52:52.425Z,68.47
2022-10-11T15:55:56.194Z,25.80
2022-10-11T15:58:58.470Z,19.80
2022-10-11T16:02:00.270Z,10.73
2022-10-11T16:05:02.081Z,19.13
2022-10-11T16:08:03.990Z,18.30
2022-10-11T16:11:07.959Z,8.20
2022-10-11T16:14:09.801Z,7.63
2022-10-11T16:17:11.696Z,10.73
2022-10-11T16:20:14.412Z,11.83
2022-10-11T16:26:18.077Z,39.33
2022-10-11T16:29:19.897Z,53.83
2022-10-11T16:32:22.906Z,13.33
2022-10-11T16:35:27.883Z,11.38
2022-10-11T16:38:31.938Z,21.50
2022-10-11T16:41:35.091Z,20.05
2022-10-11T16:44:39.492Z,32.85
2022-10-11T17:49:33.332Z,9.35
2022-10-11T17:52:35.116Z,24.38
2022-10-11T17:55:42.684Z,34.97
2022-10-11T17:58:45.239Z,15.38
2022-10-11T18:01:47.804Z,11.85
2022-10-11T18:04:49.631Z,6.60
2022-10-11T18:07:55.276Z,6.18
2022-10-11T18:10:57.073Z,12.02
2022-10-11T18:13:59.086Z,10.55
2022-10-11T18:17:00.884Z,21.27
2022-10-11T18:20:02.939Z,11.30
2022-10-11T18:23:04.912Z,12.73
2022-10-11T18:26:15.111Z,6.70
2022-10-11T18:29:16.829Z,5.40
2022-10-11T18:32:18.581Z,7.65
2022-10-11T18:35:20.435Z,8.63
2022-10-11T18:38:22.242Z,14.80
2022-10-11T18:41:30.653Z,7.90
2022-10-11T18:44:32.899Z,6.18
2022-10-11T18:47:34.679Z,5.82
2022-10-11T18:50:36.519Z,4.75
2022-10-11T18:53:38.632Z,5.30
2022-10-11T18:56:41.515Z,5.13
2022-10-11T18:59:43.277Z,6.25
2022-10-11T19:02:45.098Z,5.72
2022-10-11T19:05:46.939Z,7.80
2022-10-11T19:08:59.392Z,5.97
2022-10-11T19:12:01.288Z,9.27
2022-10-11T19:15:03.298Z,8.13
2022-10-11T19:18:05.151Z,5.75
2022-10-11T19:21:12.671Z,12.37
2022-10-11T19:24:19.129Z,16.52
2022-10-11T19:27:20.942Z,13.60
2022-10-11T19:30:24.756Z,10.88
2022-10-11T19:33:26.512Z,16.67
2022-10-11T19:36:32.608Z,23.88
2022-10-11T19:39:37.494Z,26.40
2022-10-11T19:42:39.321Z,32.95
2022-10-11T19:45:41.193Z,28.00
2022-10-11T19:48:46.409Z,11.60
2022-10-11T19:51:48.207Z,16.55
2022-10-11T19:54:50.045Z,8.65
2022-10-11T19:57:51.766Z,11.68
2022-10-11T20:01:21.298Z,10.15
2022-10-11T20:04:50.447Z,5.80
2022-10-11T20:07:45.076Z,5.28
2022-10-11T20:10:47.553Z,4.50
2022-10-11T20:13:51.987Z,5.57
2022-10-11T20:16:53.827Z,6.28
2022-10-11T20:19:55.695Z,4.38
2022-10-11T20:22:57.517Z,5.90
2022-10-11T20:26:08.957Z,5.23
2022-10-11T20:29:10.735Z,9.30
2022-10-11T20:32:12.489Z,9.65
2022-10-11T20:35:14.427Z,10.95
2022-10-11T20:38:16.240Z,8.30
2022-10-11T20:41:20.919Z,9.68
2022-10-11T20:44:22.862Z,8.00
2022-10-11T20:47:24.786Z,8.83
2022-10-11T20:50:26.574Z,4.43
2022-10-11T20:53:29.586Z,4.50
2022-10-11T20:56:31.861Z,4.60
2022-10-11T20:59:33.632Z,4.97
2022-10-11T21:02:35.614Z,2.70
2022-10-11T21:05:37.430Z,3.83
2022-10-11T21:08:40.615Z,2.10
2022-10-11T21:11:42.404Z,2.65
2022-10-11T21:14:44.597Z,6.15
2022-10-11T21:17:46.459Z,8.18
2022-10-11T21:20:48.251Z,3.20
2022-10-11T21:23:54.021Z,3.05
2022-10-11T21:27:00.262Z,2.15
2022-10-11T21:30:02.519Z,3.58
2022-10-11T21:33:04.254Z,2.63
2022-10-11T21:36:11.312Z,3.03
2022-10-11T21:39:13.203Z,6.53
2022-10-11T21:42:15.051Z,5.63
2022-10-11T21:45:16.966Z,6.10
2022-10-11T21:48:18.700Z,4.00
2022-10-11T21:51:27.236Z,4.40
2022-10-11T21:54:29.024Z,18.42
2022-10-11T21:57:30.881Z,8.90
2022-10-11T22:00:32.621Z,16.80
2022-10-11T22:03:34.414Z,9.35
2022-10-11T22:06:37.944Z,7.95
2022-10-11T22:09:39.784Z,4.60
2022-10-11T22:12:41.482Z,3.05
2022-10-11T22:15:43.286Z,2.53
2022-10-11T22:18:45.069Z,3.08
2022-10-11T22:21:46.880Z,3.00
2022-10-11T22:24:48.675Z,3.67
2022-10-11T22:27:50.424Z,2.63
2022-10-11T22:30:52.187Z,3.00
2022-10-11T22:33:55.130Z,2.55
2022-10-11T22:39:58.517Z,2.35
2022-10-11T22:43:00.312Z,2.60
2022-10-11T22:46:02.134Z,2.67
2022-10-11T22:49:03.995Z,2.90
2022-10-11T22:52:05.740Z,3.03
2022-10-11T22:55:07.921Z,4.13
2022-10-11T22:58:10.426Z,5.60
2022-10-11T23:01:15.246Z,3.70
2022-10-11T23:04:20.914Z,10.27
2022-10-11T23:07:22.655Z,5.65
2022-10-11T23:10:24.430Z,4.43
2022-10-11T23:13:26.217Z,2.80
2022-10-11T23:16:32.257Z,4.20
2022-10-11T23:19:34.038Z,3.10
2022-10-11T23:22:35.977Z,2.80
2022-10-11T23:25:37.876Z,2.50
2022-10-11T23:28:40.006Z,3.08
2022-10-11T23:31:41.796Z,4.70
2022-10-11T23:34:43.540Z,3.00
2022-10-11T23:37:45.307Z,3.80
2022-10-11T23:40:47.080Z,4.00
2022-10-11T23:43:48.967Z,5.60
2022-10-11T23:46:50.770Z,4.28
2022-10-11T23:49:52.881Z,6.38
2022-10-11T23:52:54.654Z,2.50
2022-10-11T23:55:56.472Z,2.83
2022-10-11T23:58:58.393Z,2.28
